sensor_id;sensor_type;location;lat;lon;timestamp;P1;durP1;ratioP1;P2;durP2;ratioP2
5416;SDS011;2731;50.754;12.990;2023-11-18T00:02:07;6.82;;;4.72;;
5416;SDS011;2731;50.754;12.990;2023-11-18T00:04:53;6.82;;;4.93;;
5416;SDS011;2731;50.754;12.990;2023-11-18T00:07:41;9.35;;;5.82;;
5416;SDS011;2731;50.754;12.990;2023-11-18T00:10:10;10.23;;;5.13;;
5416;SDS011;2731;50.754;12.990;2023-11-18T00:12:57;10.65;;;5.90;;
5416;SDS011;2731;50.754;12.990;2023-11-18T00:15:24;11.18;;;6.13;;
5416;SDS011;2731;50.754;12.990;2023-11-18T00:18:14;9.27;;;6.18;;
5416;SDS011;2731;50.754;12.990;2023-11-18T00:21:02;9.98;;;5.88;;
5416;SDS011;2731;50.754;12.990;2023-11-18T00:23:49;8.20;;;5.72;;
5416;SDS011;2731;50.754;12.990;2023-11-18T00:26:38;9.75;;;6.30;;
5416;SDS011;2731;50.754;12.990;2023-11-18T00:29:23;8.02;;;5.82;;
5416;SDS011;2731;50.754;12.990;2023-11-18T00:32:18;11.95;;;6.07;;
5416;SDS011;2731;50.754;12.990;2023-11-18T00:34:48;11.05;;;6.53;;
5416;SDS011;2731;50.754;12.990;2023-11-18T00:37:34;10.95;;;6.57;;
5416;SDS011;2731;50.754;12.990;2023-11-18T00:40:20;11.52;;;6.10;;
5416;SDS011;2731;50.754;12.990;2023-11-18T00:43:13;11.27;;;6.35;;
5416;SDS011;2731;50.754;12.990;2023-11-18T00:45:39;8.60;;;5.80;;
5416;SDS011;2731;50.754;12.990;2023-11-18T00:48:25;11.93;;;6.57;;
5416;SDS011;2731;50.754;12.990;2023-11-18T00:51:32;13.32;;;6.15;;
5416;SDS011;2731;50.754;12.990;2023-11-18T00:54:23;10.13;;;6.72;;
5416;SDS011;2731;50.754;12.990;2023-11-18T00:57:19;9.55;;;6.40;;
5416;SDS011;2731;50.754;12.990;2023-11-18T01:00:07;10.75;;;6.57;;
5416;SDS011;2731;50.754;12.990;2023-11-18T01:02:50;13.60;;;7.05;;
5416;SDS011;2731;50.754;12.990;2023-11-18T01:05:42;9.10;;;5.87;;
5416;SDS011;2731;50.754;12.990;2023-11-18T01:08:29;10.10;;;5.93;;
5416;SDS011;2731;50.754;12.990;2023-11-18T01:11:19;11.02;;;6.35;;
5416;SDS011;2731;50.754;12.990;2023-11-18T01:14:14;10.90;;;6.85;;
5416;SDS011;2731;50.754;12.990;2023-11-18T01:16:46;11.20;;;6.95;;
5416;SDS011;2731;50.754;12.990;2023-11-18T01:19:32;12.68;;;6.90;;
5416;SDS011;2731;50.754;12.990;2023-11-18T01:22:18;10.77;;;6.63;;
5416;SDS011;2731;50.754;12.990;2023-11-18T01:25:07;13.05;;;6.78;;
5416;SDS011;2731;50.754;12.990;2023-11-18T01:27:53;14.80;;;7.97;;
5416;SDS011;2731;50.754;12.990;2023-11-18T01:30:39;11.32;;;7.72;;
5416;SDS011;2731;50.754;12.990;2023-11-18T01:33:25;10.40;;;7.03;;
5416;SDS011;2731;50.754;12.990;2023-11-18T01:38:57;14.05;;;7.80;;
5416;SDS011;2731;50.754;12.990;2023-11-18T01:41:45;10.45;;;6.88;;
5416;SDS011;2731;50.754;12.990;2023-11-18T01:44:11;10.18;;;6.40;;
5416;SDS011;2731;50.754;12.990;2023-11-18T01:47:02;10.30;;;6.85;;
5416;SDS011;2731;50.754;12.990;2023-11-18T01:50:03;9.60;;;6.78;;
5416;SDS011;2731;50.754;12.990;2023-11-18T01:52:52;14.10;;;6.82;;
5416;SDS011;2731;50.754;12.990;2023-11-18T01:55:40;9.55;;;6.57;;
5416;SDS011;2731;50.754;12.990;2023-11-18T01:58:26;11.32;;;7.35;;
5416;SDS011;2731;50.754;12.990;2023-11-18T02:01:34;11.45;;;6.85;;
5416;SDS011;2731;50.754;12.990;2023-11-18T02:04:03;15.55;;;8.43;;
5416;SDS011;2731;50.754;12.990;2023-11-18T02:06:33;17.55;;;7.53;;
5416;SDS011;2731;50.754;12.990;2023-11-18T02:09:23;13.80;;;7.10;;
5416;SDS011;2731;50.754;12.990;2023-11-18T02:12:25;11.43;;;7.22;;
5416;SDS011;2731;50.754;12.990;2023-11-18T02:14:55;10.82;;;7.68;;
5416;SDS011;2731;50.754;12.990;2023-11-18T02:17:47;14.15;;;8.15;;
5416;SDS011;2731;50.754;12.990;2023-11-18T02:20:35;14.23;;;8.18;;
5416;SDS011;2731;50.754;12.990;2023-11-18T02:23:27;13.10;;;7.80;;
5416;SDS011;2731;50.754;12.990;2023-11-18T02:26:20;15.32;;;8.52;;
5416;SDS011;2731;50.754;12.990;2023-11-18T02:29:06;12.93;;;7.90;;
5416;SDS011;2731;50.754;12.990;2023-11-18T02:31:56;10.63;;;7.28;;
5416;SDS011;2731;50.754;12.990;2023-11-18T02:34:27;10.60;;;7.30;;
5416;SDS011;2731;50.754;12.990;2023-11-18T02:37:13;17.45;;;8.50;;
5416;SDS011;2731;50.754;12.990;2023-11-18T02:40:08;12.55;;;8.05;;
5416;SDS011;2731;50.754;12.990;2023-11-18T02:42:59;12.90;;;8.00;;
5416;SDS011;2731;50.754;12.990;2023-11-18T02:45:45;10.80;;;7.35;;
5416;SDS011;2731;50.754;12.990;2023-11-18T02:48:32;11.95;;;7.15;;
5416;SDS011;2731;50.754;12.990;2023-11-18T02:51:00;12.88;;;7.57;;
5416;SDS011;2731;50.754;12.990;2023-11-18T02:53:50;16.30;;;8.52;;
5416;SDS011;2731;50.754;12.990;2023-11-18T02:56:37;15.35;;;8.57;;
5416;SDS011;2731;50.754;12.990;2023-11-18T02:59:34;14.85;;;8.77;;
5416;SDS011;2731;50.754;12.990;2023-11-18T03:02:19;12.05;;;7.82;;
5416;SDS011;2731;50.754;12.990;2023-11-18T03:05:08;13.23;;;8.65;;
5416;SDS011;2731;50.754;12.990;2023-11-18T03:07:57;13.13;;;8.13;;
5416;SDS011;2731;50.754;12.990;2023-11-18T03:10:43;14.40;;;8.82;;
5416;SDS011;2731;50.754;12.990;2023-11-18T03:13:40;15.20;;;8.52;;
5416;SDS011;2731;50.754;12.990;2023-11-18T03:16:25;12.60;;;8.05;;
5416;SDS011;2731;50.754;12.990;2023-11-18T03:19:12;14.90;;;7.90;;
5416;SDS011;2731;50.754;12.990;2023-11-18T03:21:58;11.93;;;7.63;;
5416;SDS011;2731;50.754;12.990;2023-11-18T03:24:44;12.90;;;8.40;;
5416;SDS011;2731;50.754;12.990;2023-11-18T03:27:31;11.63;;;7.97;;
5416;SDS011;2731;50.754;12.990;2023-11-18T03:30:19;12.98;;;8.35;;
5416;SDS011;2731;50.754;12.990;2023-11-18T03:33:03;16.33;;;8.90;;
5416;SDS011;2731;50.754;12.990;2023-11-18T03:35:49;15.27;;;8.73;;
5416;SDS011;2731;50.754;12.990;2023-11-18T03:38:35;14.93;;;7.93;;
5416;SDS011;2731;50.754;12.990;2023-11-18T03:41:21;12.80;;;7.72;;
5416;SDS011;2731;50.754;12.990;2023-11-18T03:43:50;12.38;;;8.15;;
5416;SDS011;2731;50.754;12.990;2023-11-18T03:46:36;11.88;;;7.88;;
5416;SDS011;2731;50.754;12.990;2023-11-18T03:49:23;11.80;;;6.60;;
5416;SDS011;2731;50.754;12.990;2023-11-18T03:52:09;14.45;;;8.23;;
5416;SDS011;2731;50.754;12.990;2023-11-18T03:54:57;13.18;;;8.15;;
5416;SDS011;2731;50.754;12.990;2023-11-18T03:57:45;14.02;;;7.80;;
5416;SDS011;2731;50.754;12.990;2023-11-18T04:00:31;12.23;;;8.10;;
5416;SDS011;2731;50.754;12.990;2023-11-18T04:02:58;14.95;;;9.10;;
5416;SDS011;2731;50.754;12.990;2023-11-18T04:05:53;15.07;;;8.40;;
5416;SDS011;2731;50.754;12.990;2023-11-18T04:08:50;13.48;;;8.25;;
5416;SDS011;2731;50.754;12.990;2023-11-18T04:12:12;14.15;;;8.55;;
5416;SDS011;2731;50.754;12.990;2023-11-18T04:15:04;13.52;;;8.68;;
5416;SDS011;2731;50.754;12.990;2023-11-18T04:17:32;17.80;;;9.80;;
5416;SDS011;2731;50.754;12.990;2023-11-18T04:20:19;16.02;;;9.52;;
5416;SDS011;2731;50.754;12.990;2023-11-18T04:23:05;13.68;;;8.73;;
5416;SDS011;2731;50.754;12.990;2023-11-18T04:25:52;14.27;;;9.00;;
5416;SDS011;2731;50.754;12.990;2023-11-18T04:28:37;14.05;;;9.13;;
5416;SDS011;2731;50.754;12.990;2023-11-18T04:31:23;14.00;;;9.07;;
5416;SDS011;2731;50.754;12.990;2023-11-18T04:34:10;16.15;;;9.77;;
5416;SDS011;2731;50.754;12.990;2023-11-18T04:36:42;16.25;;;10.07;;
5416;SDS011;2731;50.754;12.990;2023-11-18T04:39:12;16.02;;;10.05;;
5416;SDS011;2731;50.754;12.990;2023-11-18T04:41:44;17.35;;;10.75;;
5416;SDS011;2731;50.754;12.990;2023-11-18T04:44:20;21.33;;;9.75;;
5416;SDS011;2731;50.754;12.990;2023-11-18T04:46:49;17.33;;;10.23;;
5416;SDS011;2731;50.754;12.990;2023-11-18T04:49:21;17.65;;;9.65;;
5416;SDS011;2731;50.754;12.990;2023-11-18T04:51:54;15.60;;;9.77;;
5416;SDS011;2731;50.754;12.990;2023-11-18T04:54:40;17.80;;;10.27;;
5416;SDS011;2731;50.754;12.990;2023-11-18T04:57:27;18.90;;;9.73;;
5416;SDS011;2731;50.754;12.990;2023-11-18T05:00:33;16.95;;;10.07;;
5416;SDS011;2731;50.754;12.990;2023-11-18T05:03:38;16.65;;;9.63;;
5416;SDS011;2731;50.754;12.990;2023-11-18T05:06:25;15.65;;;10.23;;
5416;SDS011;2731;50.754;12.990;2023-11-18T05:09:11;16.20;;;9.57;;
5416;SDS011;2731;50.754;12.990;2023-11-18T05:12:01;13.38;;;8.63;;
5416;SDS011;2731;50.754;12.990;2023-11-18T05:14:47;14.20;;;8.70;;
5416;SDS011;2731;50.754;12.990;2023-11-18T05:17:37;13.95;;;8.52;;
5416;SDS011;2731;50.754;12.990;2023-11-18T05:20:23;15.07;;;9.05;;
5416;SDS011;2731;50.754;12.990;2023-11-18T05:23:09;15.45;;;8.57;;
5416;SDS011;2731;50.754;12.990;2023-11-18T05:25:57;15.13;;;10.07;;
5416;SDS011;2731;50.754;12.990;2023-11-18T05:28:45;15.05;;;9.23;;
5416;SDS011;2731;50.754;12.990;2023-11-18T05:31:41;17.13;;;10.30;;
5416;SDS011;2731;50.754;12.990;2023-11-18T05:34:09;21.15;;;11.05;;
5416;SDS011;2731;50.754;12.990;2023-11-18T05:36:42;17.60;;;10.30;;
5416;SDS011;2731;50.754;12.990;2023-11-18T05:39:11;18.60;;;10.48;;
5416;SDS011;2731;50.754;12.990;2023-11-18T05:41:49;16.77;;;10.63;;
5416;SDS011;2731;50.754;12.990;2023-11-18T05:44:31;17.42;;;10.77;;
5416;SDS011;2731;50.754;12.990;2023-11-18T05:47:04;25.05;;;13.00;;
5416;SDS011;2731;50.754;12.990;2023-11-18T05:49:30;18.10;;;10.93;;
5416;SDS011;2731;50.754;12.990;2023-11-18T05:52:16;20.02;;;11.45;;
5416;SDS011;2731;50.754;12.990;2023-11-18T05:55:13;20.77;;;11.23;;
5416;SDS011;2731;50.754;12.990;2023-11-18T05:58:04;19.00;;;11.93;;
5416;SDS011;2731;50.754;12.990;2023-11-18T06:00:53;21.13;;;12.05;;
5416;SDS011;2731;50.754;12.990;2023-11-18T06:03:38;22.45;;;11.35;;
5416;SDS011;2731;50.754;12.990;2023-11-18T06:06:23;20.75;;;11.60;;
5416;SDS011;2731;50.754;12.990;2023-11-18T06:08:53;21.17;;;11.55;;
5416;SDS011;2731;50.754;12.990;2023-11-18T06:11:38;19.80;;;11.13;;
5416;SDS011;2731;50.754;12.990;2023-11-18T06:14:31;15.90;;;10.00;;
5416;SDS011;2731;50.754;12.990;2023-11-18T06:17:17;18.27;;;10.50;;
5416;SDS011;2731;50.754;12.990;2023-11-18T06:19:46;25.80;;;11.20;;
5416;SDS011;2731;50.754;12.990;2023-11-18T06:22:31;18.70;;;10.27;;
5416;SDS011;2731;50.754;12.990;2023-11-18T06:25:18;19.70;;;11.95;;
5416;SDS011;2731;50.754;12.990;2023-11-18T06:28:08;18.73;;;10.23;;
5416;SDS011;2731;50.754;12.990;2023-11-18T06:30:58;18.27;;;10.73;;
5416;SDS011;2731;50.754;12.990;2023-11-18T06:33:49;16.77;;;9.70;;
5416;SDS011;2731;50.754;12.990;2023-11-18T06:36:18;18.65;;;10.23;;
5416;SDS011;2731;50.754;12.990;2023-11-18T06:38:52;18.43;;;10.03;;
5416;SDS011;2731;50.754;12.990;2023-11-18T06:41:45;17.58;;;10.77;;
5416;SDS011;2731;50.754;12.990;2023-11-18T06:44:19;21.25;;;12.18;;
5416;SDS011;2731;50.754;12.990;2023-11-18T06:46:54;19.67;;;11.30;;
5416;SDS011;2731;50.754;12.990;2023-11-18T06:49:23;19.50;;;10.18;;
5416;SDS011;2731;50.754;12.990;2023-11-18T06:51:51;18.27;;;11.90;;
5416;SDS011;2731;50.754;12.990;2023-11-18T06:54:40;20.02;;;11.73;;
5416;SDS011;2731;50.754;12.990;2023-11-18T06:57:28;25.05;;;14.20;;
5416;SDS011;2731;50.754;12.990;2023-11-18T07:00:13;16.80;;;9.70;;
5416;SDS011;2731;50.754;12.990;2023-11-18T07:03:01;16.25;;;9.77;;
5416;SDS011;2731;50.754;12.990;2023-11-18T07:05:29;17.02;;;10.35;;
5416;SDS011;2731;50.754;12.990;2023-11-18T07:08:21;19.25;;;12.27;;
5416;SDS011;2731;50.754;12.990;2023-11-18T07:10:49;17.25;;;10.98;;
5416;SDS011;2731;50.754;12.990;2023-11-18T07:13:37;19.90;;;11.10;;
5416;SDS011;2731;50.754;12.990;2023-11-18T07:16:27;23.80;;;14.13;;
5416;SDS011;2731;50.754;12.990;2023-11-18T07:18:53;22.50;;;14.73;;
5416;SDS011;2731;50.754;12.990;2023-11-18T07:21:39;21.30;;;11.90;;
5416;SDS011;2731;50.754;12.990;2023-11-18T07:24:26;20.08;;;12.80;;
5416;SDS011;2731;50.754;12.990;2023-11-18T07:27:15;18.40;;;10.70;;
5416;SDS011;2731;50.754;12.990;2023-11-18T07:30:03;16.73;;;11.30;;
5416;SDS011;2731;50.754;12.990;2023-11-18T07:32:51;16.42;;;10.65;;
5416;SDS011;2731;50.754;12.990;2023-11-18T07:35:36;18.85;;;10.90;;
5416;SDS011;2731;50.754;12.990;2023-11-18T07:38:05;22.25;;;12.68;;
5416;SDS011;2731;50.754;12.990;2023-11-18T07:40:34;17.70;;;10.80;;
5416;SDS011;2731;50.754;12.990;2023-11-18T07:43:10;16.50;;;11.02;;
5416;SDS011;2731;50.754;12.990;2023-11-18T07:45:43;20.03;;;10.43;;
5416;SDS011;2731;50.754;12.990;2023-11-18T07:48:16;21.42;;;14.55;;
5416;SDS011;2731;50.754;12.990;2023-11-18T07:50:43;17.38;;;10.25;;
5416;SDS011;2731;50.754;12.990;2023-11-18T07:53:09;18.38;;;11.80;;
5416;SDS011;2731;50.754;12.990;2023-11-18T07:55:56;19.27;;;11.77;;
5416;SDS011;2731;50.754;12.990;2023-11-18T07:58:46;17.58;;;11.57;;
5416;SDS011;2731;50.754;12.990;2023-11-18T08:01:31;17.80;;;11.35;;
5416;SDS011;2731;50.754;12.990;2023-11-18T08:04:18;17.17;;;10.40;;
5416;SDS011;2731;50.754;12.990;2023-11-18T08:06:47;17.65;;;10.50;;
5416;SDS011;2731;50.754;12.990;2023-11-18T08:09:35;20.15;;;12.13;;
5416;SDS011;2731;50.754;12.990;2023-11-18T08:12:28;21.10;;;12.52;;
5416;SDS011;2731;50.754;12.990;2023-11-18T08:15:16;19.83;;;13.48;;
5416;SDS011;2731;50.754;12.990;2023-11-18T08:18:04;26.23;;;13.48;;
5416;SDS011;2731;50.754;12.990;2023-11-18T08:20:33;21.35;;;13.52;;
5416;SDS011;2731;50.754;12.990;2023-11-18T08:23:19;24.50;;;12.98;;
5416;SDS011;2731;50.754;12.990;2023-11-18T08:26:13;24.98;;;13.35;;
5416;SDS011;2731;50.754;12.990;2023-11-18T08:29:00;20.58;;;13.02;;
5416;SDS011;2731;50.754;12.990;2023-11-18T08:31:47;26.17;;;13.50;;
5416;SDS011;2731;50.754;12.990;2023-11-18T08:34:34;20.55;;;12.80;;
5416;SDS011;2731;50.754;12.990;2023-11-18T08:37:21;22.23;;;12.68;;
5416;SDS011;2731;50.754;12.990;2023-11-18T08:39:48;20.20;;;11.18;;
5416;SDS011;2731;50.754;12.990;2023-11-18T08:42:17;22.08;;;13.45;;
5416;SDS011;2731;50.754;12.990;2023-11-18T08:44:46;19.45;;;12.07;;
5416;SDS011;2731;50.754;12.990;2023-11-18T08:47:14;21.50;;;13.38;;
5416;SDS011;2731;50.754;12.990;2023-11-18T08:49:42;21.45;;;11.38;;
5416;SDS011;2731;50.754;12.990;2023-11-18T08:52:16;36.35;;;19.70;;
5416;SDS011;2731;50.754;12.990;2023-11-18T08:54:45;29.10;;;15.70;;
5416;SDS011;2731;50.754;12.990;2023-11-18T08:57:49;58.85;;;30.48;;
5416;SDS011;2731;50.754;12.990;2023-11-18T09:00:30;28.98;;;15.43;;
5416;SDS011;2731;50.754;12.990;2023-11-18T09:03:23;26.67;;;15.45;;
5416;SDS011;2731;50.754;12.990;2023-11-18T09:06:02;20.42;;;12.95;;
5416;SDS011;2731;50.754;12.990;2023-11-18T09:08:39;23.45;;;12.50;;
5416;SDS011;2731;50.754;12.990;2023-11-18T09:11:08;24.00;;;14.18;;
5416;SDS011;2731;50.754;12.990;2023-11-18T09:14:12;26.90;;;14.85;;
5416;SDS011;2731;50.754;12.990;2023-11-18T09:16:58;25.80;;;14.80;;
5416;SDS011;2731;50.754;12.990;2023-11-18T09:19:25;24.33;;;14.20;;
5416;SDS011;2731;50.754;12.990;2023-11-18T09:22:12;23.50;;;12.55;;
5416;SDS011;2731;50.754;12.990;2023-11-18T09:25:01;23.85;;;13.60;;
5416;SDS011;2731;50.754;12.990;2023-11-18T09:28:08;22.25;;;12.95;;
5416;SDS011;2731;50.754;12.990;2023-11-18T09:30:37;20.67;;;12.73;;
5416;SDS011;2731;50.754;12.990;2023-11-18T09:33:25;22.83;;;13.00;;
5416;SDS011;2731;50.754;12.990;2023-11-18T09:36:06;19.10;;;11.98;;
5416;SDS011;2731;50.754;12.990;2023-11-18T09:38:34;23.55;;;12.48;;
5416;SDS011;2731;50.754;12.990;2023-11-18T09:41:01;21.77;;;12.70;;
5416;SDS011;2731;50.754;12.990;2023-11-18T09:43:29;21.52;;;13.05;;
5416;SDS011;2731;50.754;12.990;2023-11-18T09:46:03;21.58;;;13.32;;
5416;SDS011;2731;50.754;12.990;2023-11-18T09:48:42;24.20;;;13.05;;
5416;SDS011;2731;50.754;12.990;2023-11-18T09:51:28;20.63;;;12.25;;
5416;SDS011;2731;50.754;12.990;2023-11-18T09:54:01;21.70;;;13.85;;
5416;SDS011;2731;50.754;12.990;2023-11-18T09:56:35;21.85;;;13.00;;
5416;SDS011;2731;50.754;12.990;2023-11-18T09:59:11;24.10;;;13.20;;
5416;SDS011;2731;50.754;12.990;2023-11-18T10:01:54;20.02;;;13.98;;
5416;SDS011;2731;50.754;12.990;2023-11-18T10:04:27;21.75;;;12.45;;
5416;SDS011;2731;50.754;12.990;2023-11-18T10:07:25;22.92;;;13.52;;
5416;SDS011;2731;50.754;12.990;2023-11-18T10:10:26;23.42;;;13.27;;
5416;SDS011;2731;50.754;12.990;2023-11-18T10:13:32;22.00;;;13.63;;
5416;SDS011;2731;50.754;12.990;2023-11-18T10:16:18;23.23;;;12.90;;
5416;SDS011;2731;50.754;12.990;2023-11-18T10:19:16;21.08;;;14.32;;
5416;SDS011;2731;50.754;12.990;2023-11-18T10:22:03;19.85;;;12.82;;
5416;SDS011;2731;50.754;12.990;2023-11-18T10:24:44;19.65;;;12.43;;
5416;SDS011;2731;50.754;12.990;2023-11-18T10:27:30;20.15;;;12.95;;
5416;SDS011;2731;50.754;12.990;2023-11-18T10:30:19;22.10;;;11.70;;
5416;SDS011;2731;50.754;12.990;2023-11-18T10:33:08;22.27;;;12.15;;
5416;SDS011;2731;50.754;12.990;2023-11-18T10:35:56;19.20;;;11.98;;
5416;SDS011;2731;50.754;12.990;2023-11-18T10:38:50;19.08;;;11.88;;
5416;SDS011;2731;50.754;12.990;2023-11-18T10:41:22;15.80;;;10.50;;
5416;SDS011;2731;50.754;12.990;2023-11-18T10:44:08;17.10;;;11.70;;
5416;SDS011;2731;50.754;12.990;2023-11-18T10:46:52;19.13;;;13.13;;
5416;SDS011;2731;50.754;12.990;2023-11-18T10:49:40;24.33;;;12.63;;
5416;SDS011;2731;50.754;12.990;2023-11-18T10:52:39;21.10;;;12.95;;
5416;SDS011;2731;50.754;12.990;2023-11-18T10:55:39;20.08;;;12.10;;
5416;SDS011;2731;50.754;12.990;2023-11-18T10:58:25;22.90;;;14.50;;
5416;SDS011;2731;50.754;12.990;2023-11-18T11:01:31;19.55;;;12.88;;
5416;SDS011;2731;50.754;12.990;2023-11-18T11:03:58;21.60;;;12.57;;
5416;SDS011;2731;50.754;12.990;2023-11-18T11:06:52;19.65;;;12.10;;
5416;SDS011;2731;50.754;12.990;2023-11-18T11:09:50;18.20;;;11.05;;
5416;SDS011;2731;50.754;12.990;2023-11-18T11:12:50;15.32;;;10.80;;
5416;SDS011;2731;50.754;12.990;2023-11-18T11:15:50;19.35;;;10.75;;
5416;SDS011;2731;50.754;12.990;2023-11-18T11:18:53;14.95;;;9.02;;
5416;SDS011;2731;50.754;12.990;2023-11-18T11:21:43;14.38;;;10.05;;
5416;SDS011;2731;50.754;12.990;2023-11-18T11:24:28;14.18;;;9.52;;
5416;SDS011;2731;50.754;12.990;2023-11-18T11:27:22;17.33;;;11.40;;
5416;SDS011;2731;50.754;12.990;2023-11-18T11:33:41;14.68;;;10.25;;
5416;SDS011;2731;50.754;12.990;2023-11-18T11:36:36;17.35;;;9.82;;
5416;SDS011;2731;50.754;12.990;2023-11-18T11:39:25;15.85;;;11.05;;
5416;SDS011;2731;50.754;12.990;2023-11-18T11:41:56;18.67;;;12.02;;
5416;SDS011;2731;50.754;12.990;2023-11-18T11:44:24;18.65;;;11.88;;
5416;SDS011;2731;50.754;12.990;2023-11-18T11:47:16;19.40;;;11.80;;
5416;SDS011;2731;50.754;12.990;2023-11-18T11:50:13;19.42;;;11.43;;
5416;SDS011;2731;50.754;12.990;2023-11-18T11:53:07;17.05;;;11.60;;
5416;SDS011;2731;50.754;12.990;2023-11-18T11:56:01;16.40;;;10.35;;
5416;SDS011;2731;50.754;12.990;2023-11-18T11:58:52;13.35;;;9.57;;
5416;SDS011;2731;50.754;12.990;2023-11-18T12:01:25;16.67;;;10.63;;
5416;SDS011;2731;50.754;12.990;2023-11-18T12:04:16;14.40;;;10.30;;
5416;SDS011;2731;50.754;12.990;2023-11-18T12:07:12;15.85;;;10.05;;
5416;SDS011;2731;50.754;12.990;2023-11-18T12:10:05;13.75;;;8.90;;
5416;SDS011;2731;50.754;12.990;2023-11-18T12:13:06;14.43;;;9.80;;
5416;SDS011;2731;50.754;12.990;2023-11-18T12:15:55;11.80;;;8.30;;
5416;SDS011;2731;50.754;12.990;2023-11-18T12:21:54;11.60;;;7.43;;
5416;SDS011;2731;50.754;12.990;2023-11-18T12:24:40;11.95;;;7.38;;
5416;SDS011;2731;50.754;12.990;2023-11-18T12:27:45;9.95;;;6.78;;
5416;SDS011;2731;50.754;12.990;2023-11-18T12:30:39;12.75;;;7.88;;
5416;SDS011;2731;50.754;12.990;2023-11-18T12:34:14;9.60;;;6.75;;
5416;SDS011;2731;50.754;12.990;2023-11-18T12:36:48;11.55;;;7.93;;
5416;SDS011;2731;50.754;12.990;2023-11-18T12:48:30;12.02;;;7.50;;
5416;SDS011;2731;50.754;12.990;2023-11-18T12:51:16;8.20;;;5.45;;
5416;SDS011;2731;50.754;12.990;2023-11-18T12:54:06;9.23;;;5.70;;
5416;SDS011;2731;50.754;12.990;2023-11-18T12:56:33;8.65;;;6.28;;
5416;SDS011;2731;50.754;12.990;2023-11-18T12:59:21;10.38;;;5.50;;
5416;SDS011;2731;50.754;12.990;2023-11-18T13:01:50;7.03;;;4.93;;
5416;SDS011;2731;50.754;12.990;2023-11-18T13:04:51;9.35;;;5.72;;
5416;SDS011;2731;50.754;12.990;2023-11-18T13:07:39;9.15;;;5.93;;
5416;SDS011;2731;50.754;12.990;2023-11-18T13:10:09;9.85;;;5.68;;
5416;SDS011;2731;50.754;12.990;2023-11-18T13:12:40;7.03;;;5.20;;
5416;SDS011;2731;50.754;12.990;2023-11-18T13:15:08;7.93;;;5.90;;
5416;SDS011;2731;50.754;12.990;2023-11-18T13:17:35;8.75;;;5.15;;
5416;SDS011;2731;50.754;12.990;2023-11-18T13:20:11;9.38;;;5.60;;
5416;SDS011;2731;50.754;12.990;2023-11-18T13:22:57;10.82;;;6.85;;
5416;SDS011;2731;50.754;12.990;2023-11-18T13:25:44;9.13;;;5.38;;
5416;SDS011;2731;50.754;12.990;2023-11-18T13:28:12;12.35;;;7.20;;
5416;SDS011;2731;50.754;12.990;2023-11-18T13:30:42;8.70;;;5.55;;
5416;SDS011;2731;50.754;12.990;2023-11-18T13:33:10;7.38;;;5.25;;
5416;SDS011;2731;50.754;12.990;2023-11-18T13:35:38;9.45;;;5.25;;
5416;SDS011;2731;50.754;12.990;2023-11-18T13:38:09;9.13;;;5.68;;
5416;SDS011;2731;50.754;12.990;2023-11-18T13:40:47;8.10;;;5.43;;
5416;SDS011;2731;50.754;12.990;2023-11-18T13:43:49;8.38;;;4.93;;
5416;SDS011;2731;50.754;12.990;2023-11-18T13:46:39;10.75;;;4.90;;
5416;SDS011;2731;50.754;12.990;2023-11-18T13:49:27;5.10;;;3.90;;
5416;SDS011;2731;50.754;12.990;2023-11-18T13:52:13;7.18;;;4.03;;
5416;SDS011;2731;50.754;12.990;2023-11-18T13:54:46;5.82;;;3.53;;
5416;SDS011;2731;50.754;12.990;2023-11-18T13:57:15;5.18;;;3.30;;
5416;SDS011;2731;50.754;12.990;2023-11-18T13:59:44;6.13;;;3.78;;
5416;SDS011;2731;50.754;12.990;2023-11-18T14:02:25;7.65;;;3.78;;
5416;SDS011;2731;50.754;12.990;2023-11-18T14:05:24;4.82;;;3.20;;
5416;SDS011;2731;50.754;12.990;2023-11-18T14:08:10;6.47;;;3.63;;
5416;SDS011;2731;50.754;12.990;2023-11-18T14:10:56;4.95;;;3.15;;
5416;SDS011;2731;50.754;12.990;2023-11-18T14:13:42;5.80;;;3.08;;
5416;SDS011;2731;50.754;12.990;2023-11-18T14:16:26;4.82;;;3.00;;
5416;SDS011;2731;50.754;12.990;2023-11-18T14:19:16;6.82;;;4.60;;
5416;SDS011;2731;50.754;12.990;2023-11-18T14:22:04;5.43;;;2.90;;
5416;SDS011;2731;50.754;12.990;2023-11-18T14:24:34;5.70;;;3.22;;
5416;SDS011;2731;50.754;12.990;2023-11-18T14:27:21;4.15;;;2.80;;
5416;SDS011;2731;50.754;12.990;2023-11-18T14:30:06;6.82;;;2.80;;
5416;SDS011;2731;50.754;12.990;2023-11-18T14:32:54;3.00;;;2.30;;
5416;SDS011;2731;50.754;12.990;2023-11-18T14:35:40;5.45;;;2.28;;
5416;SDS011;2731;50.754;12.990;2023-11-18T14:38:28;3.78;;;2.35;;
5416;SDS011;2731;50.754;12.990;2023-11-18T14:41:15;4.63;;;2.70;;
5416;SDS011;2731;50.754;12.990;2023-11-18T14:43:42;4.22;;;2.92;;
5416;SDS011;2731;50.754;12.990;2023-11-18T14:46:28;5.35;;;3.10;;
5416;SDS011;2731;50.754;12.990;2023-11-18T14:49:15;4.43;;;2.90;;
5416;SDS011;2731;50.754;12.990;2023-11-18T14:52:03;7.10;;;4.38;;
5416;SDS011;2731;50.754;12.990;2023-11-18T14:54:41;6.00;;;3.92;;
5416;SDS011;2731;50.754;12.990;2023-11-18T14:57:08;11.57;;;4.50;;
5416;SDS011;2731;50.754;12.990;2023-11-18T14:59:34;7.72;;;4.10;;
5416;SDS011;2731;50.754;12.990;2023-11-18T15:02:02;6.38;;;4.28;;
5416;SDS011;2731;50.754;12.990;2023-11-18T15:04:48;12.75;;;4.68;;
5416;SDS011;2731;50.754;12.990;2023-11-18T15:07:34;8.95;;;5.28;;
5416;SDS011;2731;50.754;12.990;2023-11-18T15:10:21;6.28;;;4.18;;
5416;SDS011;2731;50.754;12.990;2023-11-18T15:13:07;6.38;;;4.75;;
5416;SDS011;2731;50.754;12.990;2023-11-18T15:16:00;7.55;;;4.97;;
5416;SDS011;2731;50.754;12.990;2023-11-18T15:18:46;6.30;;;4.57;;
5416;SDS011;2731;50.754;12.990;2023-11-18T15:21:31;8.55;;;5.43;;
5416;SDS011;2731;50.754;12.990;2023-11-18T15:23:58;7.75;;;4.93;;
5416;SDS011;2731;50.754;12.990;2023-11-18T15:26:45;6.78;;;4.80;;
5416;SDS011;2731;50.754;12.990;2023-11-18T15:29:32;10.20;;;5.85;;
5416;SDS011;2731;50.754;12.990;2023-11-18T15:32:23;9.60;;;5.22;;
5416;SDS011;2731;50.754;12.990;2023-11-18T15:35:12;8.85;;;5.32;;
5416;SDS011;2731;50.754;12.990;2023-11-18T15:37:59;9.90;;;5.53;;
5416;SDS011;2731;50.754;12.990;2023-11-18T15:40:49;9.35;;;5.47;;
5416;SDS011;2731;50.754;12.990;2023-11-18T15:43:17;8.25;;;4.88;;
5416;SDS011;2731;50.754;12.990;2023-11-18T15:46:08;11.60;;;6.07;;
5416;SDS011;2731;50.754;12.990;2023-11-18T15:48:55;10.65;;;6.78;;
5416;SDS011;2731;50.754;12.990;2023-11-18T15:51:44;12.57;;;6.55;;
5416;SDS011;2731;50.754;12.990;2023-11-18T15:54:31;9.82;;;6.18;;
5416;SDS011;2731;50.754;12.990;2023-11-18T15:57:19;18.42;;;10.13;;
5416;SDS011;2731;50.754;12.990;2023-11-18T15:59:50;36.33;;;16.63;;
5416;SDS011;2731;50.754;12.990;2023-11-18T16:02:19;39.42;;;18.63;;
5416;SDS011;2731;50.754;12.990;2023-11-18T16:04:49;38.60;;;18.38;;
5416;SDS011;2731;50.754;12.990;2023-11-18T16:07:19;25.90;;;13.35;;
5416;SDS011;2731;50.754;12.990;2023-11-18T16:09:46;24.63;;;12.68;;
5416;SDS011;2731;50.754;12.990;2023-11-18T16:12:33;21.15;;;11.05;;
5416;SDS011;2731;50.754;12.990;2023-11-18T16:15:18;13.93;;;8.60;;
5416;SDS011;2731;50.754;12.990;2023-11-18T16:18:07;12.95;;;7.78;;
5416;SDS011;2731;50.754;12.990;2023-11-18T16:20:54;11.68;;;6.97;;
5416;SDS011;2731;50.754;12.990;2023-11-18T16:23:52;11.60;;;6.97;;
5416;SDS011;2731;50.754;12.990;2023-11-18T16:26:40;10.80;;;6.93;;
5416;SDS011;2731;50.754;12.990;2023-11-18T16:29:34;11.25;;;7.63;;
5416;SDS011;2731;50.754;12.990;2023-11-18T16:32:24;12.75;;;8.43;;
5416;SDS011;2731;50.754;12.990;2023-11-18T16:35:11;13.98;;;8.05;;
5416;SDS011;2731;50.754;12.990;2023-11-18T16:37:57;12.15;;;7.70;;
5416;SDS011;2731;50.754;12.990;2023-11-18T16:40:44;13.73;;;9.10;;
5416;SDS011;2731;50.754;12.990;2023-11-18T16:43:29;17.15;;;8.93;;
5416;SDS011;2731;50.754;12.990;2023-11-18T16:46:17;13.52;;;8.63;;